sensor_id;sensor_type;location;lat;lon;timestamp;temperature;humidity
72940;DHT22;61094;51.154;13.570;2022-10-16T00:01:45;15.50;82.00
72940;DHT22;61094;51.154;13.570;2022-10-16T00:04:12;15.50;82.40
72940;DHT22;61094;51.154;13.570;2022-10-16T00:06:39;15.50;82.90
72940;DHT22;61094;51.154;13.570;2022-10-16T00:09:06;15.40;83.00
72940;DHT22;61094;51.154;13.570;2022-10-16T00:11:36;15.40;82.70
72940;DHT22;61094;51.154;13.570;2022-10-16T00:14:06;15.40;82.30
72940;DHT22;61094;51.154;13.570;2022-10-16T00:16:34;15.40;82.10
72940;DHT22;61094;51.154;13.570;2022-10-16T00:19:00;15.30;82.80
72940;DHT22;61094;51.154;13.570;2022-10-16T00:21:28;15.30;81.80
72940;DHT22;61094;51.154;13.570;2022-10-16T00:23:57;15.30;82.10
72940;DHT22;61094;51.154;13.570;2022-10-16T00:26:25;15.20;82.70
72940;DHT22;61094;51.154;13.570;2022-10-16T00:28:53;15.20;83.40
72940;DHT22;61094;51.154;13.570;2022-10-16T00:31:21;15.20;84.30
72940;DHT22;61094;51.154;13.570;2022-10-16T00:33:49;15.20;82.90
72940;DHT22;61094;51.154;13.570;2022-10-16T00:36:17;15.10;82.60
72940;DHT22;61094;51.154;13.570;2022-10-16T00:38:45;15.10;82.70
72940;DHT22;61094;51.154;13.570;2022-10-16T00:41:13;15.10;82.50
72940;DHT22;61094;51.154;13.570;2022-10-16T00:43:42;15.10;82.40
72940;DHT22;61094;51.154;13.570;2022-10-16T00:46:15;15.10;84.10
72940;DHT22;61094;51.154;13.570;2022-10-16T00:48:46;15.10;84.00
72940;DHT22;61094;51.154;13.570;2022-10-16T00:51:15;15.10;85.60
72940;DHT22;61094;51.154;13.570;2022-10-16T00:53:43;15.10;84.90
72940;DHT22;61094;51.154;13.570;2022-10-16T00:56:11;15.10;84.20
72940;DHT22;61094;51.154;13.570;2022-10-16T00:58:37;15.20;83.50
72940;DHT22;61094;51.154;13.570;2022-10-16T01:01:04;15.20;83.10
72940;DHT22;61094;51.154;13.570;2022-10-16T01:03:35;15.20;82.90
72940;DHT22;61094;51.154;13.570;2022-10-16T01:06:15;15.20;84.10
72940;DHT22;61094;51.154;13.570;2022-10-16T01:08:52;15.30;83.40
72940;DHT22;61094;51.154;13.570;2022-10-16T01:11:25;15.20;83.30
72940;DHT22;61094;51.154;13.570;2022-10-16T01:13:55;15.20;82.90
72940;DHT22;61094;51.154;13.570;2022-10-16T01:16:30;15.20;83.10
72940;DHT22;61094;51.154;13.570;2022-10-16T01:19:09;15.20;84.40
72940;DHT22;61094;51.154;13.570;2022-10-16T01:21:41;15.20;84.00
72940;DHT22;61094;51.154;13.570;2022-10-16T01:24:15;15.30;83.50
72940;DHT22;61094;51.154;13.570;2022-10-16T01:27:03;15.30;83.20
72940;DHT22;61094;51.154;13.570;2022-10-16T01:29:35;15.30;83.40
72940;DHT22;61094;51.154;13.570;2022-10-16T01:32:09;15.30;83.40
72940;DHT22;61094;51.154;13.570;2022-10-16T01:34:41;15.40;84.30
72940;DHT22;61094;51.154;13.570;2022-10-16T01:37:12;15.40;83.60
72940;DHT22;61094;51.154;13.570;2022-10-16T01:39:42;15.40;83.10
72940;DHT22;61094;51.154;13.570;2022-10-16T01:42:15;15.50;83.10
72940;DHT22;61094;51.154;13.570;2022-10-16T01:44:43;15.50;82.90
72940;DHT22;61094;51.154;13.570;2022-10-16T01:47:13;15.60;82.60
72940;DHT22;61094;51.154;13.570;2022-10-16T01:49:41;15.60;83.00
72940;DHT22;61094;51.154;13.570;2022-10-16T01:52:12;15.70;83.90
72940;DHT22;61094;51.154;13.570;2022-10-16T01:54:42;15.70;83.80
72940;DHT22;61094;51.154;13.570;2022-10-16T01:57:10;15.70;85.20
72940;DHT22;61094;51.154;13.570;2022-10-16T01:59:42;15.70;86.80
72940;DHT22;61094;51.154;13.570;2022-10-16T02:02:11;15.80;83.40
72940;DHT22;61094;51.154;13.570;2022-10-16T02:04:42;15.80;84.40
72940;DHT22;61094;51.154;13.570;2022-10-16T02:07:10;15.90;83.80
72940;DHT22;61094;51.154;13.570;2022-10-16T02:09:37;15.90;83.40
72940;DHT22;61094;51.154;13.570;2022-10-16T02:12:10;15.90;82.40
72940;DHT22;61094;51.154;13.570;2022-10-16T02:14:40;16.00;82.30
72940;DHT22;61094;51.154;13.570;2022-10-16T02:17:12;16.00;82.80
72940;DHT22;61094;51.154;13.570;2022-10-16T02:19:39;16.00;82.40
72940;DHT22;61094;51.154;13.570;2022-10-16T02:22:08;16.00;82.10
72940;DHT22;61094;51.154;13.570;2022-10-16T02:24:41;16.00;82.00
72940;DHT22;61094;51.154;13.570;2022-10-16T02:27:11;16.10;82.30
72940;DHT22;61094;51.154;13.570;2022-10-16T02:29:44;16.10;81.90
72940;DHT22;61094;51.154;13.570;2022-10-16T02:32:15;16.10;82.30
72940;DHT22;61094;51.154;13.570;2022-10-16T02:34:43;16.20;85.30
72940;DHT22;61094;51.154;13.570;2022-10-16T02:37:11;16.20;83.30
72940;DHT22;61094;51.154;13.570;2022-10-16T02:39:39;16.20;82.60
72940;DHT22;61094;51.154;13.570;2022-10-16T02:42:10;16.30;83.00
72940;DHT22;61094;51.154;13.570;2022-10-16T02:44:36;16.30;83.60
72940;DHT22;61094;51.154;13.570;2022-10-16T02:47:04;16.30;83.00
72940;DHT22;61094;51.154;13.570;2022-10-16T02:49:31;16.30;82.70
72940;DHT22;61094;51.154;13.570;2022-10-16T02:51:58;16.40;84.40
72940;DHT22;61094;51.154;13.570;2022-10-16T02:54:24;16.40;83.20
72940;DHT22;61094;51.154;13.570;2022-10-16T02:56:51;16.40;85.20
72940;DHT22;61094;51.154;13.570;2022-10-16T02:59:18;16.40;82.60
72940;DHT22;61094;51.154;13.570;2022-10-16T03:01:45;16.40;83.10
72940;DHT22;61094;51.154;13.570;2022-10-16T03:04:13;16.40;82.40
72940;DHT22;61094;51.154;13.570;2022-10-16T03:06:40;16.40;83.10
72940;DHT22;61094;51.154;13.570;2022-10-16T03:09:07;16.50;82.10
72940;DHT22;61094;51.154;13.570;2022-10-16T03:11:33;16.50;82.80
72940;DHT22;61094;51.154;13.570;2022-10-16T03:14:00;16.50;82.50
72940;DHT22;61094;51.154;13.570;2022-10-16T03:16:27;16.50;82.00
72940;DHT22;61094;51.154;13.570;2022-10-16T03:18:53;16.40;82.50
72940;DHT22;61094;51.154;13.570;2022-10-16T03:21:22;16.50;82.50
72940;DHT22;61094;51.154;13.570;2022-10-16T03:23:48;16.40;82.80
72940;DHT22;61094;51.154;13.570;2022-10-16T03:26:15;16.40;82.00
72940;DHT22;61094;51.154;13.570;2022-10-16T03:28:42;16.40;82.10
72940;DHT22;61094;51.154;13.570;2022-10-16T03:31:08;16.30;81.90
72940;DHT22;61094;51.154;13.570;2022-10-16T03:33:36;16.30;82.70
72940;DHT22;61094;51.154;13.570;2022-10-16T03:36:03;16.30;82.60
72940;DHT22;61094;51.154;13.570;2022-10-16T03:38:31;16.20;82.40
72940;DHT22;61094;51.154;13.570;2022-10-16T03:40:58;16.20;82.20
72940;DHT22;61094;51.154;13.570;2022-10-16T03:43:25;16.20;82.30
72940;DHT22;61094;51.154;13.570;2022-10-16T03:45:51;16.10;82.50
72940;DHT22;61094;51.154;13.570;2022-10-16T03:48:18;16.00;84.10
72940;DHT22;61094;51.154;13.570;2022-10-16T03:50:45;16.10;82.70
72940;DHT22;61094;51.154;13.570;2022-10-16T03:53:13;16.00;83.40
72940;DHT22;61094;51.154;13.570;2022-10-16T03:55:42;16.00;83.40
72940;DHT22;61094;51.154;13.570;2022-10-16T03:58:09;16.00;83.70
72940;DHT22;61094;51.154;13.570;2022-10-16T04:00:39;16.00;83.60
72940;DHT22;61094;51.154;13.570;2022-10-16T04:03:06;16.00;83.50
72940;DHT22;61094;51.154;13.570;2022-10-16T04:05:33;15.90;83.40
72940;DHT22;61094;51.154;13.570;2022-10-16T04:07:59;15.90;83.00
72940;DHT22;61094;51.154;13.570;2022-10-16T04:10:26;15.90;82.70
72940;DHT22;61094;51.154;13.570;2022-10-16T04:12:55;15.90;82.90
72940;DHT22;61094;51.154;13.570;2022-10-16T04:15:22;15.80;82.60
72940;DHT22;61094;51.154;13.570;2022-10-16T04:17:49;15.90;82.60
72940;DHT22;61094;51.154;13.570;2022-10-16T04:20:16;15.80;82.50
72940;DHT22;61094;51.154;13.570;2022-10-16T04:22:43;15.80;83.10
72940;DHT22;61094;51.154;13.570;2022-10-16T04:25:10;15.70;82.80
72940;DHT22;61094;51.154;13.570;2022-10-16T04:27:37;15.70;82.80
72940;DHT22;61094;51.154;13.570;2022-10-16T04:30:06;15.70;83.20
72940;DHT22;61094;51.154;13.570;2022-10-16T04:32:33;15.70;83.00
72940;DHT22;61094;51.154;13.570;2022-10-16T04:35:00;15.60;82.90
72940;DHT22;61094;51.154;13.570;2022-10-16T04:37:27;15.60;83.70
72940;DHT22;61094;51.154;13.570;2022-10-16T04:39:54;15.60;83.10
72940;DHT22;61094;51.154;13.570;2022-10-16T04:42:21;15.60;84.00
72940;DHT22;61094;51.154;13.570;2022-10-16T04:44:47;15.50;83.70
72940;DHT22;61094;51.154;13.570;2022-10-16T04:47:15;15.50;83.70
72940;DHT22;61094;51.154;13.570;2022-10-16T04:49:42;15.50;83.50
72940;DHT22;61094;51.154;13.570;2022-10-16T04:52:09;15.50;83.70
72940;DHT22;61094;51.154;13.570;2022-10-16T04:54:35;15.50;83.40
72940;DHT22;61094;51.154;13.570;2022-10-16T04:57:02;15.50;84.50
72940;DHT22;61094;51.154;13.570;2022-10-16T04:59:30;15.50;84.00
72940;DHT22;61094;51.154;13.570;2022-10-16T05:01:57;15.50;83.50
72940;DHT22;61094;51.154;13.570;2022-10-16T05:04:25;15.50;85.40
72940;DHT22;61094;51.154;13.570;2022-10-16T05:06:51;15.40;83.70
72940;DHT22;61094;51.154;13.570;2022-10-16T05:09:18;15.40;83.60
72940;DHT22;61094;51.154;13.570;2022-10-16T05:11:45;15.30;83.50
72940;DHT22;61094;51.154;13.570;2022-10-16T05:14:11;15.30;83.70
72940;DHT22;61094;51.154;13.570;2022-10-16T05:16:38;15.30;83.80
72940;DHT22;61094;51.154;13.570;2022-10-16T05:19:05;15.30;85.30
72940;DHT22;61094;51.154;13.570;2022-10-16T05:21:33;15.20;84.30
72940;DHT22;61094;51.154;13.570;2022-10-16T05:23:59;15.20;84.40
72940;DHT22;61094;51.154;13.570;2022-10-16T05:26:26;15.10;84.10
72940;DHT22;61094;51.154;13.570;2022-10-16T05:28:53;15.10;84.10
72940;DHT22;61094;51.154;13.570;2022-10-16T05:31:19;15.00;84.40
72940;DHT22;61094;51.154;13.570;2022-10-16T05:33:46;15.00;84.40
72940;DHT22;61094;51.154;13.570;2022-10-16T05:36:13;14.90;84.60
72940;DHT22;61094;51.154;13.570;2022-10-16T05:38:41;14.90;84.60
72940;DHT22;61094;51.154;13.570;2022-10-16T05:41:10;14.80;85.40
72940;DHT22;61094;51.154;13.570;2022-10-16T05:43:37;14.80;85.50
72940;DHT22;61094;51.154;13.570;2022-10-16T05:46:05;14.80;87.00
72940;DHT22;61094;51.154;13.570;2022-10-16T05:48:32;14.80;85.40
72940;DHT22;61094;51.154;13.570;2022-10-16T05:50:59;14.80;85.00
72940;DHT22;61094;51.154;13.570;2022-10-16T05:53:27;14.80;85.10
72940;DHT22;61094;51.154;13.570;2022-10-16T05:55:56;14.90;84.80
72940;DHT22;61094;51.154;13.570;2022-10-16T05:58:23;14.90;84.80
72940;DHT22;61094;51.154;13.570;2022-10-16T06:00:53;14.90;84.70
72940;DHT22;61094;51.154;13.570;2022-10-16T06:03:21;14.90;84.50
72940;DHT22;61094;51.154;13.570;2022-10-16T06:05:48;14.90;84.40
72940;DHT22;61094;51.154;13.570;2022-10-16T06:08:15;15.00;84.40
72940;DHT22;61094;51.154;13.570;2022-10-16T06:10:42;15.00;84.30
72940;DHT22;61094;51.154;13.570;2022-10-16T06:13:10;15.00;84.60
72940;DHT22;61094;51.154;13.570;2022-10-16T06:15:37;15.00;84.20
72940;DHT22;61094;51.154;13.570;2022-10-16T06:18:04;15.00;84.50
72940;DHT22;61094;51.154;13.570;2022-10-16T06:20:31;15.00;84.40
72940;DHT22;61094;51.154;13.570;2022-10-16T06:22:58;15.10;84.60
72940;DHT22;61094;51.154;13.570;2022-10-16T06:25:24;15.10;84.30
72940;DHT22;61094;51.154;13.570;2022-10-16T06:27:51;15.10;84.30
72940;DHT22;61094;51.154;13.570;2022-10-16T06:30:19;15.20;84.20
72940;DHT22;61094;51.154;13.570;2022-10-16T06:32:46;15.30;84.20
72940;DHT22;61094;51.154;13.570;2022-10-16T06:35:13;15.30;84.20
72940;DHT22;61094;51.154;13.570;2022-10-16T06:37:39;15.40;84.00
72940;DHT22;61094;51.154;13.570;2022-10-16T06:40:07;15.40;84.50
72940;DHT22;61094;51.154;13.570;2022-10-16T06:42:34;15.50;84.30
72940;DHT22;61094;51.154;13.570;2022-10-16T06:45:00;15.50;85.30
72940;DHT22;61094;51.154;13.570;2022-10-16T06:47:28;15.60;84.60
72940;DHT22;61094;51.154;13.570;2022-10-16T06:49:55;15.60;83.70
72940;DHT22;61094;51.154;13.570;2022-10-16T06:52:22;15.70;84.30
72940;DHT22;61094;51.154;13.570;2022-10-16T06:54:49;15.70;83.70
72940;DHT22;61094;51.154;13.570;2022-10-16T06:57:16;15.80;83.50
72940;DHT22;61094;51.154;13.570;2022-10-16T06:59:43;15.80;83.40
72940;DHT22;61094;51.154;13.570;2022-10-16T07:02:09;15.90;83.80
72940;DHT22;61094;51.154;13.570;2022-10-16T07:04:38;16.00;84.20
72940;DHT22;61094;51.154;13.570;2022-10-16T07:07:04;16.10;83.70
72940;DHT22;61094;51.154;13.570;2022-10-16T07:09:31;16.20;83.30
72940;DHT22;61094;51.154;13.570;2022-10-16T07:11:58;16.20;83.10
72940;DHT22;61094;51.154;13.570;2022-10-16T07:14:24;16.30;82.60
72940;DHT22;61094;51.154;13.570;2022-10-16T07:16:51;16.40;82.60
72940;DHT22;61094;51.154;13.570;2022-10-16T07:19:18;16.40;82.40
72940;DHT22;61094;51.154;13.570;2022-10-16T07:21:46;16.40;82.30
72940;DHT22;61094;51.154;13.570;2022-10-16T07:24:14;16.50;83.00
72940;DHT22;61094;51.154;13.570;2022-10-16T07:26:43;16.60;82.10
72940;DHT22;61094;51.154;13.570;2022-10-16T07:29:12;16.60;82.40
72940;DHT22;61094;51.154;13.570;2022-10-16T07:31:52;16.70;82.30
72940;DHT22;61094;51.154;13.570;2022-10-16T07:34:19;16.70;84.20
72940;DHT22;61094;51.154;13.570;2022-10-16T07:36:50;16.80;82.60
72940;DHT22;61094;51.154;13.570;2022-10-16T07:39:17;16.90;82.40
72940;DHT22;61094;51.154;13.570;2022-10-16T07:41:43;17.00;81.70
72940;DHT22;61094;51.154;13.570;2022-10-16T07:44:10;17.10;82.20
72940;DHT22;61094;51.154;13.570;2022-10-16T07:46:37;17.30;81.80
72940;DHT22;61094;51.154;13.570;2022-10-16T07:49:04;17.40;82.30
72940;DHT22;61094;51.154;13.570;2022-10-16T07:51:30;17.50;81.20
72940;DHT22;61094;51.154;13.570;2022-10-16T07:53:59;17.60;81.90
72940;DHT22;61094;51.154;13.570;2022-10-16T07:56:25;17.70;81.20
72940;DHT22;61094;51.154;13.570;2022-10-16T07:58:52;17.80;80.70
72940;DHT22;61094;51.154;13.570;2022-10-16T08:01:19;17.90;80.80
72940;DHT22;61094;51.154;13.570;2022-10-16T08:03:48;17.90;80.50
72940;DHT22;61094;51.154;13.570;2022-10-16T08:06:15;17.90;80.30
72940;DHT22;61094;51.154;13.570;2022-10-16T08:08:43;17.90;80.40
72940;DHT22;61094;51.154;13.570;2022-10-16T08:11:11;17.90;80.60
72940;DHT22;61094;51.154;13.570;2022-10-16T08:13:37;17.90;80.60
72940;DHT22;61094;51.154;13.570;2022-10-16T08:16:05;17.90;80.60
72940;DHT22;61094;51.154;13.570;2022-10-16T08:18:33;17.90;80.50
72940;DHT22;61094;51.154;13.570;2022-10-16T08:21:01;17.90;80.60
72940;DHT22;61094;51.154;13.570;2022-10-16T08:23:28;18.00;80.50
72940;DHT22;61094;51.154;13.570;2022-10-16T08:29:26;18.60;80.00
72940;DHT22;61094;51.154;13.570;2022-10-16T08:31:53;18.90;79.20
72940;DHT22;61094;51.154;13.570;2022-10-16T08:34:20;19.00;79.30
72940;DHT22;61094;51.154;13.570;2022-10-16T08:36:46;19.10;77.40
72940;DHT22;61094;51.154;13.570;2022-10-16T08:39:13;19.20;77.90
72940;DHT22;61094;51.154;13.570;2022-10-16T08:42:15;19.20;77.30
72940;DHT22;61094;51.154;13.570;2022-10-16T08:45:13;19.20;77.40
72940;DHT22;61094;51.154;13.570;2022-10-16T08:47:48;19.20;77.50
72940;DHT22;61094;51.154;13.570;2022-10-16T08:50:21;19.30;77.30
72940;DHT22;61094;51.154;13.570;2022-10-16T08:52:49;19.40;76.90
72940;DHT22;61094;51.154;13.570;2022-10-16T08:55:28;19.60;77.00
72940;DHT22;61094;51.154;13.570;2022-10-16T08:57:55;19.90;76.80
72940;DHT22;61094;51.154;13.570;2022-10-16T09:00:24;20.30;76.30
72940;DHT22;61094;51.154;13.570;2022-10-16T09:02:58;20.90;76.00
72940;DHT22;61094;51.154;13.570;2022-10-16T09:05:44;21.60;73.50
72940;DHT22;61094;51.154;13.570;2022-10-16T09:08:21;22.40;70.20
72940;DHT22;61094;51.154;13.570;2022-10-16T09:10:54;23.30;70.20
72940;DHT22;61094;51.154;13.570;2022-10-16T09:13:26;23.80;69.10
72940;DHT22;61094;51.154;13.570;2022-10-16T09:16:01;24.10;69.50
72940;DHT22;61094;51.154;13.570;2022-10-16T09:18:39;24.40;63.10
72940;DHT22;61094;51.154;13.570;2022-10-16T09:21:13;24.50;68.50
72940;DHT22;61094;51.154;13.570;2022-10-16T09:24:07;24.40;68.90
72940;DHT22;61094;51.154;13.570;2022-10-16T09:26:36;24.30;68.80
72940;DHT22;61094;51.154;13.570;2022-10-16T09:29:03;24.20;69.50
72940;DHT22;61094;51.154;13.570;2022-10-16T09:31:31;24.00;69.30
72940;DHT22;61094;51.154;13.570;2022-10-16T09:34:17;23.90;69.30
72940;DHT22;61094;51.154;13.570;2022-10-16T09:36:45;23.60;64.20
72940;DHT22;61094;51.154;13.570;2022-10-16T09:39:12;23.40;70.40
72940;DHT22;61094;51.154;13.570;2022-10-16T09:41:41;23.20;70.10
72940;DHT22;61094;51.154;13.570;2022-10-16T09:44:19;23.20;69.20
72940;DHT22;61094;51.154;13.570;2022-10-16T09:46:49;23.10;69.20
72940;DHT22;61094;51.154;13.570;2022-10-16T09:49:21;23.00;69.80
72940;DHT22;61094;51.154;13.570;2022-10-16T09:51:49;23.00;69.40
72940;DHT22;61094;51.154;13.570;2022-10-16T09:54:17;23.00;69.60
72940;DHT22;61094;51.154;13.570;2022-10-16T09:56:44;23.00;69.20
72940;DHT22;61094;51.154;13.570;2022-10-16T09:59:16;23.10;67.70
72940;DHT22;61094;51.154;13.570;2022-10-16T10:08:29;22.90;70.00
72940;DHT22;61094;51.154;13.570;2022-10-16T10:10:56;22.90;69.70
72940;DHT22;61094;51.154;13.570;2022-10-16T10:13:24;23.00;69.40
72940;DHT22;61094;51.154;13.570;2022-10-16T10:15:53;23.00;68.00
72940;DHT22;61094;51.154;13.570;2022-10-16T10:18:21;23.20;69.10
72940;DHT22;61094;51.154;13.570;2022-10-16T10:20:57;23.70;68.70
72940;DHT22;61094;51.154;13.570;2022-10-16T10:23:26;24.30;67.60
72940;DHT22;61094;51.154;13.570;2022-10-16T10:25:57;24.50;65.90
72940;DHT22;61094;51.154;13.570;2022-10-16T10:28:42;24.50;65.60
72940;DHT22;61094;51.154;13.570;2022-10-16T10:31:17;24.50;65.20
72940;DHT22;61094;51.154;13.570;2022-10-16T10:33:49;24.40;66.20
72940;DHT22;61094;51.154;13.570;2022-10-16T10:36:25;24.40;60.60
72940;DHT22;61094;51.154;13.570;2022-10-16T10:38:58;24.20;64.80
72940;DHT22;61094;51.154;13.570;2022-10-16T10:44:51;23.70;65.90
72940;DHT22;61094;51.154;13.570;2022-10-16T10:47:29;23.40;66.50
72940;DHT22;61094;51.154;13.570;2022-10-16T10:50:03;23.20;66.30
72940;DHT22;61094;51.154;13.570;2022-10-16T10:52:47;23.00;63.70
72940;DHT22;61094;51.154;13.570;2022-10-16T10:55:23;22.90;65.80
72940;DHT22;61094;51.154;13.570;2022-10-16T10:58:12;22.90;67.10
72940;DHT22;61094;51.154;13.570;2022-10-16T11:00:50;22.90;65.10
72940;DHT22;61094;51.154;13.570;2022-10-16T11:03:31;23.50;66.10
72940;DHT22;61094;51.154;13.570;2022-10-16T11:06:04;23.90;65.70
72940;DHT22;61094;51.154;13.570;2022-10-16T11:08:36;24.50;64.10
72940;DHT22;61094;51.154;13.570;2022-10-16T11:11:08;25.30;61.00
72940;DHT22;61094;51.154;13.570;2022-10-16T11:13:42;26.00;59.60
72940;DHT22;61094;51.154;13.570;2022-10-16T11:16:17;26.40;60.50
72940;DHT22;61094;51.154;13.570;2022-10-16T11:18:49;26.50;57.50
72940;DHT22;61094;51.154;13.570;2022-10-16T11:21:19;26.50;59.90
72940;DHT22;61094;51.154;13.570;2022-10-16T11:23:53;26.20;59.40
72940;DHT22;61094;51.154;13.570;2022-10-16T11:26:26;25.80;60.10
72940;DHT22;61094;51.154;13.570;2022-10-16T11:28:54;25.50;58.60
72940;DHT22;61094;51.154;13.570;2022-10-16T11:31:27;25.20;61.70
72940;DHT22;61094;51.154;13.570;2022-10-16T11:34:01;24.90;62.10
72940;DHT22;61094;51.154;13.570;2022-10-16T11:36:33;24.70;62.40
72940;DHT22;61094;51.154;13.570;2022-10-16T11:39:07;24.50;62.90
72940;DHT22;61094;51.154;13.570;2022-10-16T11:41:42;24.30;62.90
72940;DHT22;61094;51.154;13.570;2022-10-16T11:44:18;24.30;62.70
72940;DHT22;61094;51.154;13.570;2022-10-16T11:46:56;24.50;62.80
72940;DHT22;61094;51.154;13.570;2022-10-16T11:49:26;24.80;62.80
72940;DHT22;61094;51.154;13.570;2022-10-16T11:51:59;24.90;62.00
72940;DHT22;61094;51.154;13.570;2022-10-16T11:54:33;24.90;61.80
72940;DHT22;61094;51.154;13.570;2022-10-16T11:57:09;24.80;60.90
72940;DHT22;61094;51.154;13.570;2022-10-16T11:59:43;24.70;61.80
72940;DHT22;61094;51.154;13.570;2022-10-16T12:02:36;24.60;61.70
72940;DHT22;61094;51.154;13.570;2022-10-16T12:05:18;24.60;59.70
72940;DHT22;61094;51.154;13.570;2022-10-16T12:07:50;24.50;59.40
72940;DHT22;61094;51.154;13.570;2022-10-16T12:10:23;24.50;62.00
72940;DHT22;61094;51.154;13.570;2022-10-16T12:12:50;24.40;62.10
72940;DHT22;61094;51.154;13.570;2022-10-16T12:15:23;24.30;62.00
72940;DHT22;61094;51.154;13.570;2022-10-16T12:17:52;24.30;61.90
72940;DHT22;61094;51.154;13.570;2022-10-16T12:20:23;24.20;62.00
72940;DHT22;61094;51.154;13.570;2022-10-16T12:22:53;24.10;62.30
72940;DHT22;61094;51.154;13.570;2022-10-16T12:25:23;24.00;62.10
72940;DHT22;61094;51.154;13.570;2022-10-16T12:27:55;23.90;62.50
72940;DHT22;61094;51.154;13.570;2022-10-16T12:30:24;23.90;62.70
72940;DHT22;61094;51.154;13.570;2022-10-16T12:32:58;23.80;62.80
72940;DHT22;61094;51.154;13.570;2022-10-16T12:35:28;23.80;62.00
72940;DHT22;61094;51.154;13.570;2022-10-16T12:38:05;23.70;62.30
72940;DHT22;61094;51.154;13.570;2022-10-16T12:40:35;23.70;62.50
72940;DHT22;61094;51.154;13.570;2022-10-16T12:43:34;23.60;62.10
72940;DHT22;61094;51.154;13.570;2022-10-16T12:46:05;23.60;62.80
72940;DHT22;61094;51.154;13.570;2022-10-16T12:48:34;23.50;62.80
72940;DHT22;61094;51.154;13.570;2022-10-16T12:51:10;23.50;62.90
72940;DHT22;61094;51.154;13.570;2022-10-16T12:53:37;23.60;62.90
72940;DHT22;61094;51.154;13.570;2022-10-16T12:56:09;23.50;63.20
72940;DHT22;61094;51.154;13.570;2022-10-16T12:58:51;23.50;62.50
72940;DHT22;61094;51.154;13.570;2022-10-16T13:01:32;23.60;62.60
72940;DHT22;61094;51.154;13.570;2022-10-16T13:04:29;23.60;62.30
72940;DHT22;61094;51.154;13.570;2022-10-16T13:07:06;23.60;62.10
72940;DHT22;61094;51.154;13.570;2022-10-16T13:09:50;23.50;60.70
72940;DHT22;61094;51.154;13.570;2022-10-16T13:15:29;23.40;62.10
72940;DHT22;61094;51.154;13.570;2022-10-16T13:18:09;23.40;61.80
72940;DHT22;61094;51.154;13.570;2022-10-16T13:20:53;23.40;62.90
72940;DHT22;61094;51.154;13.570;2022-10-16T13:23:24;23.40;62.10
72940;DHT22;61094;51.154;13.570;2022-10-16T13:26:06;23.50;62.90
72940;DHT22;61094;51.154;13.570;2022-10-16T13:28:37;23.40;62.80
72940;DHT22;61094;51.154;13.570;2022-10-16T13:31:05;23.50;62.50
72940;DHT22;61094;51.154;13.570;2022-10-16T13:33:42;23.50;62.60
72940;DHT22;61094;51.154;13.570;2022-10-16T13:36:20;23.50;62.60
72940;DHT22;61094;51.154;13.570;2022-10-16T13:38:47;23.50;62.60
72940;DHT22;61094;51.154;13.570;2022-10-16T13:41:15;23.50;62.70
72940;DHT22;61094;51.154;13.570;2022-10-16T13:43:45;23.50;62.70
72940;DHT22;61094;51.154;13.570;2022-10-16T13:46:15;23.50;62.80
72940;DHT22;61094;51.154;13.570;2022-10-16T13:48:42;23.50;62.90
72940;DHT22;61094;51.154;13.570;2022-10-16T13:51:13;23.50;62.90
72940;DHT22;61094;51.154;13.570;2022-10-16T13:53:42;23.50;63.00
72940;DHT22;61094;51.154;13.570;2022-10-16T13:56:12;23.40;63.10
72940;DHT22;61094;51.154;13.570;2022-10-16T13:58:40;23.40;63.30
72940;DHT22;61094;51.154;13.570;2022-10-16T14:01:16;23.30;63.40
72940;DHT22;61094;51.154;13.570;2022-10-16T14:03:44;23.20;63.40
72940;DHT22;61094;51.154;13.570;2022-10-16T14:06:13;23.20;63.50
72940;DHT22;61094;51.154;13.570;2022-10-16T14:08:45;23.10;63.70
72940;DHT22;61094;51.154;13.570;2022-10-16T14:11:21;23.10;63.80
72940;DHT22;61094;51.154;13.570;2022-10-16T14:13:49;23.10;63.70
72940;DHT22;61094;51.154;13.570;2022-10-16T14:16:19;23.10;63.90
72940;DHT22;61094;51.154;13.570;2022-10-16T14:18:51;23.10;64.10
72940;DHT22;61094;51.154;13.570;2022-10-16T14:21:19;23.00;64.10
72940;DHT22;61094;51.154;13.570;2022-10-16T14:23:47;23.10;64.20
72940;DHT22;61094;51.154;13.570;2022-10-16T14:26:17;23.00;64.10
72940;DHT22;61094;51.154;13.570;2022-10-16T14:28:45;23.10;64.20
72940;DHT22;61094;51.154;13.570;2022-10-16T14:31:28;23.10;64.10
72940;DHT22;61094;51.154;13.570;2022-10-16T14:33:55;23.20;64.00
72940;DHT22;61094;51.154;13.570;2022-10-16T14:36:23;23.20;63.90
72940;DHT22;61094;51.154;13.570;2022-10-16T14:38:58;23.20;63.90
72940;DHT22;61094;51.154;13.570;2022-10-16T14:41:26;23.40;63.90
72940;DHT22;61094;51.154;13.570;2022-10-16T14:43:54;23.50;63.50
72940;DHT22;61094;51.154;13.570;2022-10-16T14:46:27;23.50;63.20
72940;DHT22;61094;51.154;13.570;2022-10-16T14:49:00;23.60;63.20
72940;DHT22;61094;51.154;13.570;2022-10-16T14:51:27;23.60;63.10
72940;DHT22;61094;51.154;13.570;2022-10-16T14:53:55;23.60;63.00
72940;DHT22;61094;51.154;13.570;2022-10-16T14:56:24;23.50;62.80
72940;DHT22;61094;51.154;13.570;2022-10-16T14:58:51;23.50;62.80
72940;DHT22;61094;51.154;13.570;2022-10-16T15:01:18;23.50;63.30
72940;DHT22;61094;51.154;13.570;2022-10-16T15:03:46;23.50;63.30
72940;DHT22;61094;51.154;13.570;2022-10-16T15:06:38;23.50;63.20
72940;DHT22;61094;51.154;13.570;2022-10-16T15:09:21;23.50;63.00
72940;DHT22;61094;51.154;13.570;2022-10-16T15:11:48;23.60;63.10
72940;DHT22;61094;51.154;13.570;2022-10-16T15:14:14;23.60;63.00
72940;DHT22;61094;51.154;13.570;2022-10-16T15:16:41;23.60;62.90
72940;DHT22;61094;51.154;13.570;2022-10-16T15:19:10;23.60;62.80
72940;DHT22;61094;51.154;13.570;2022-10-16T15:21:38;23.50;62.80
72940;DHT22;61094;51.154;13.570;2022-10-16T15:24:09;23.50;63.00
72940;DHT22;61094;51.154;13.570;2022-10-16T15:26:41;23.40;63.10
72940;DHT22;61094;51.154;13.570;2022-10-16T15:29:16;23.30;63.20
72940;DHT22;61094;51.154;13.570;2022-10-16T15:31:45;23.30;63.30
72940;DHT22;61094;51.154;13.570;2022-10-16T15:34:14;23.20;63.60
72940;DHT22;61094;51.154;13.570;2022-10-16T15:36:43;23.10;63.70
72940;DHT22;61094;51.154;13.570;2022-10-16T15:39:19;23.00;63.70
72940;DHT22;61094;51.154;13.570;2022-10-16T15:42:04;22.90;64.00
72940;DHT22;61094;51.154;13.570;2022-10-16T15:44:32;22.80;64.20
72940;DHT22;61094;51.154;13.570;2022-10-16T15:47:08;22.70;64.30
72940;DHT22;61094;51.154;13.570;2022-10-16T15:49:41;22.60;63.50
72940;DHT22;61094;51.154;13.570;2022-10-16T15:52:12;22.40;64.70